createdAt,value
2023-02-15T00:00:17.271Z,16.33
2023-02-15T00:01:17.248Z,16.38
2023-02-15T00:02:17.280Z,16.35
2023-02-15T00:03:17.387Z,16.33
2023-02-15T00:04:17.251Z,16.33
2023-02-15T00:05:18.682Z,16.31
2023-02-15T00:06:17.258Z,16.38
2023-02-15T00:07:18.425Z,16.31
2023-02-15T00:08:17.239Z,16.31
2023-02-15T00:09:17.212Z,16.33
2023-02-15T00:10:17.210Z,16.33
2023-02-15T00:11:17.205Z,16.31
2023-02-15T00:12:17.201Z,16.38
2023-02-15T00:13:17.208Z,16.42
2023-02-15T00:14:17.197Z,16.39
2023-02-15T00:15:17.595Z,16.38
2023-02-15T00:16:17.203Z,16.35
2023-02-15T00:17:17.170Z,16.33
2023-02-15T00:18:17.180Z,16.33
2023-02-15T00:19:17.197Z,16.27
2023-02-15T00:20:17.169Z,16.33
2023-02-15T00:21:17.170Z,16.38
2023-02-15T00:22:17.157Z,16.31
2023-02-15T00:23:17.157Z,16.28
2023-02-15T00:24:17.151Z,16.30
2023-02-15T00:25:17.148Z,16.34
2023-02-15T00:26:17.126Z,16.30
2023-02-15T00:27:17.127Z,16.35
2023-02-15T00:28:17.120Z,16.31
2023-02-15T00:29:17.117Z,16.28
2023-02-15T00:30:17.160Z,16.25
2023-02-15T00:31:17.209Z,16.35
2023-02-15T00:32:17.106Z,16.38
2023-02-15T00:33:17.096Z,16.33
2023-02-15T00:34:17.098Z,16.24
2023-02-15T00:35:17.114Z,16.34
2023-02-15T00:36:17.081Z,16.27
2023-02-15T00:37:17.080Z,16.25
2023-02-15T00:38:17.063Z,16.27
2023-02-15T00:39:17.072Z,16.28
2023-02-15T00:40:17.071Z,16.23
2023-02-15T00:41:17.066Z,16.15
2023-02-15T00:42:17.058Z,16.27
2023-02-15T00:43:17.060Z,16.28
2023-02-15T00:44:17.050Z,16.30
2023-02-15T00:45:17.442Z,16.17
2023-02-15T00:46:17.056Z,16.25
2023-02-15T00:47:17.039Z,16.24
2023-02-15T00:48:17.018Z,16.28
2023-02-15T00:49:17.034Z,16.17
2023-02-15T00:50:17.021Z,16.27
2023-02-15T00:51:17.197Z,16.25
2023-02-15T00:52:17.008Z,16.21
2023-02-15T00:53:17.010Z,16.21
2023-02-15T00:54:16.991Z,16.27
2023-02-15T00:55:17.004Z,16.20
2023-02-15T00:56:16.977Z,16.23
2023-02-15T00:57:16.989Z,16.20
2023-02-15T00:58:16.972Z,16.21
2023-02-15T00:59:16.976Z,16.17
2023-02-15T01:00:16.956Z,16.20
2023-02-15T01:01:17.005Z,16.30
2023-02-15T01:02:16.964Z,16.15
2023-02-15T01:03:16.969Z,16.20
2023-02-15T01:04:17.020Z,16.27
2023-02-15T01:05:16.947Z,16.27
2023-02-15T01:06:16.941Z,16.21
2023-02-15T01:07:16.973Z,16.17
2023-02-15T01:08:16.918Z,16.21
2023-02-15T01:09:16.932Z,16.15
2023-02-15T01:10:16.908Z,16.15
2023-02-15T01:11:16.927Z,16.20
2023-02-15T01:12:16.914Z,16.17
2023-02-15T01:13:16.910Z,16.17
2023-02-15T01:14:16.889Z,16.17
2023-02-15T01:15:16.904Z,16.15
2023-02-15T01:16:16.969Z,16.23
2023-02-15T01:17:16.896Z,16.17
2023-02-15T01:18:16.887Z,16.23
2023-02-15T01:19:16.890Z,16.21
2023-02-15T01:20:16.873Z,16.23
2023-02-15T01:21:16.887Z,16.25
2023-02-15T01:22:16.858Z,16.23
2023-02-15T01:23:16.898Z,16.23
2023-02-15T01:24:16.841Z,16.17
2023-02-15T01:25:16.851Z,16.14
2023-02-15T01:26:16.845Z,16.20
2023-02-15T01:27:16.841Z,16.23
2023-02-15T01:28:16.832Z,16.17
2023-02-15T01:29:16.844Z,16.11
2023-02-15T01:30:16.917Z,16.12
2023-02-15T01:31:17.002Z,16.17
2023-02-15T01:32:16.820Z,16.15
2023-02-15T01:33:16.812Z,16.07
2023-02-15T01:34:16.805Z,16.21
2023-02-15T01:35:16.833Z,16.09
2023-02-15T01:36:16.792Z,16.15
2023-02-15T01:37:16.795Z,16.14
2023-02-15T01:38:16.794Z,16.14
2023-02-15T01:39:16.798Z,16.20
2023-02-15T01:40:16.761Z,16.12
2023-02-15T01:41:16.768Z,16.09
2023-02-15T01:42:16.763Z,16.12
2023-02-15T01:43:16.763Z,16.12
2023-02-15T01:44:16.753Z,16.14
2023-02-15T01:45:16.741Z,16.12
2023-02-15T01:46:16.790Z,16.15
2023-02-15T01:47:16.737Z,16.12
2023-02-15T01:48:16.732Z,16.12
2023-02-15T01:49:16.739Z,16.17
2023-02-15T01:50:16.725Z,16.09
2023-02-15T01:51:16.714Z,16.14
2023-02-15T01:52:16.713Z,16.15
2023-02-15T01:53:16.698Z,16.12
2023-02-15T01:54:16.758Z,16.09
2023-02-15T01:55:16.721Z,16.08
2023-02-15T01:56:16.708Z,16.12
2023-02-15T01:57:16.695Z,16.08
2023-02-15T01:58:16.663Z,16.15
2023-02-15T01:59:16.665Z,16.15
2023-02-15T02:00:16.651Z,16.05
2023-02-15T02:01:16.711Z,16.08
2023-02-15T02:02:16.724Z,16.09
2023-02-15T02:03:16.644Z,16.11
2023-02-15T02:04:16.642Z,16.08
2023-02-15T02:05:16.647Z,16.09
2023-02-15T02:06:16.626Z,16.09
2023-02-15T02:07:16.634Z,16.12
2023-02-15T02:08:16.617Z,16.08
2023-02-15T02:09:16.618Z,16.09
2023-02-15T02:10:16.602Z,16.12
2023-02-15T02:11:16.631Z,16.08
2023-02-15T02:12:16.608Z,16.04
2023-02-15T02:13:16.605Z,16.07
2023-02-15T02:14:16.597Z,16.07
2023-02-15T02:15:16.593Z,16.08
2023-02-15T02:16:16.604Z,16.09
2023-02-15T02:17:16.567Z,16.11
2023-02-15T02:18:16.573Z,16.09
2023-02-15T02:19:16.558Z,16.07
2023-02-15T02:20:16.588Z,16.08
2023-02-15T02:21:16.547Z,16.08
2023-02-15T02:22:16.547Z,16.08
2023-02-15T02:23:16.553Z,16.05
2023-02-15T02:24:16.544Z,16.08
2023-02-15T02:25:16.547Z,16.08
2023-02-15T02:26:16.530Z,16.08
2023-02-15T02:27:16.550Z,16.05
2023-02-15T02:28:16.523Z,16.11
2023-02-15T02:29:16.523Z,16.05
2023-02-15T02:30:16.590Z,16.12
2023-02-15T02:31:16.645Z,16.01
2023-02-15T02:32:16.503Z,16.07
2023-02-15T02:33:16.502Z,16.05
2023-02-15T02:34:16.491Z,16.11
2023-02-15T02:35:16.474Z,16.05
2023-02-15T02:36:16.484Z,16.08
2023-02-15T02:37:16.662Z,16.12
2023-02-15T02:38:16.461Z,16.08
2023-02-15T02:39:16.465Z,16.07
2023-02-15T02:40:16.461Z,16.07
2023-02-15T02:41:16.446Z,16.00
2023-02-15T02:42:16.441Z,16.07
2023-02-15T02:43:16.475Z,16.05
2023-02-15T02:44:16.445Z,16.04
2023-02-15T02:45:16.424Z,16.02
2023-02-15T02:46:16.479Z,16.02
2023-02-15T02:47:16.424Z,16.05
2023-02-15T02:48:16.408Z,16.02
2023-02-15T02:49:16.409Z,16.05
2023-02-15T02:50:16.412Z,16.04
2023-02-15T02:51:16.391Z,15.96
2023-02-15T02:52:16.397Z,16.05
2023-02-15T02:53:16.385Z,16.01
2023-02-15T02:54:16.392Z,16.05
2023-02-15T02:55:16.383Z,16.08
2023-02-15T02:56:16.365Z,15.97
2023-02-15T02:57:16.444Z,15.94
2023-02-15T02:58:16.358Z,16.02
2023-02-15T02:59:16.392Z,16.05
2023-02-15T03:00:16.349Z,16.01
2023-02-15T03:01:16.361Z,16.05
2023-02-15T03:02:16.351Z,16.04
2023-02-15T03:03:16.353Z,16.01
2023-02-15T03:04:16.340Z,16.05
2023-02-15T03:05:16.325Z,16.00
2023-02-15T03:06:16.339Z,16.01
2023-02-15T03:07:16.337Z,16.02
2023-02-15T03:08:16.320Z,16.09
2023-02-15T03:09:16.319Z,16.05
2023-02-15T03:10:16.308Z,16.08
2023-02-15T03:11:16.296Z,15.93
2023-02-15T03:12:16.297Z,16.02
2023-02-15T03:13:16.288Z,16.00
2023-02-15T03:14:16.289Z,15.96
2023-02-15T03:15:16.324Z,16.01
2023-02-15T03:16:16.386Z,16.07
2023-02-15T03:17:16.277Z,16.07
2023-02-15T03:18:16.258Z,16.04
2023-02-15T03:19:16.274Z,16.02
2023-02-15T03:20:16.258Z,16.04
2023-02-15T03:21:16.261Z,16.04
2023-02-15T03:22:16.249Z,15.93
2023-02-15T03:23:16.238Z,16.04
2023-02-15T03:24:16.494Z,16.04
2023-02-15T03:25:16.227Z,16.01
2023-02-15T03:26:16.217Z,16.01
2023-02-15T03:27:16.235Z,15.96
2023-02-15T03:28:16.231Z,16.05
2023-02-15T03:29:16.208Z,15.87
2023-02-15T03:30:16.308Z,16.00
2023-02-15T03:31:16.408Z,16.04
2023-02-15T03:32:16.282Z,16.00
2023-02-15T03:33:16.185Z,16.02
2023-02-15T03:34:16.186Z,15.97
2023-02-15T03:35:16.190Z,15.97
2023-02-15T03:36:16.167Z,16.05
2023-02-15T03:37:16.174Z,16.01
2023-02-15T03:38:16.172Z,15.94
2023-02-15T03:39:16.160Z,16.05
2023-02-15T03:40:16.169Z,15.93
2023-02-15T03:41:16.151Z,15.93
2023-02-15T03:42:16.202Z,15.89
2023-02-15T03:43:16.141Z,16.00
2023-02-15T03:44:16.131Z,16.01
2023-02-15T03:45:16.139Z,15.92
2023-02-15T03:46:16.156Z,15.97
2023-02-15T03:47:16.156Z,15.97
2023-02-15T03:48:16.101Z,15.93
2023-02-15T03:49:16.101Z,16.00
2023-02-15T03:50:16.107Z,15.97
2023-02-15T03:51:16.111Z,15.96
2023-02-15T03:52:16.108Z,15.97
2023-02-15T03:53:16.090Z,15.94
2023-02-15T03:54:16.085Z,15.94
2023-02-15T03:55:16.091Z,15.94
2023-02-15T03:56:16.077Z,15.94
2023-02-15T03:57:16.055Z,15.92
2023-02-15T03:58:16.054Z,15.96
2023-02-15T03:59:16.046Z,15.94
2023-02-15T04:00:16.054Z,15.92
2023-02-15T04:01:16.100Z,15.93
2023-02-15T04:02:16.039Z,15.94
2023-02-15T04:03:16.127Z,15.92
2023-02-15T04:04:16.029Z,15.92
2023-02-15T04:05:16.030Z,15.92
2023-02-15T04:06:16.011Z,15.94
2023-02-15T04:07:16.009Z,15.89
2023-02-15T04:08:16.002Z,15.89
2023-02-15T04:09:15.996Z,15.87
2023-02-15T04:10:15.989Z,15.94
2023-02-15T04:11:16.008Z,15.86
2023-02-15T04:12:16.000Z,15.92
2023-02-15T04:13:15.974Z,15.92
2023-02-15T04:14:15.979Z,15.90
2023-02-15T04:15:15.982Z,15.93
2023-02-15T04:16:15.988Z,15.90
2023-02-15T04:17:15.963Z,15.93
2023-02-15T04:18:15.943Z,15.84
2023-02-15T04:19:15.985Z,15.92
2023-02-15T04:20:15.929Z,15.84
2023-02-15T04:21:15.942Z,15.86
2023-02-15T04:22:15.930Z,15.92
2023-02-15T04:23:15.922Z,15.86
2023-02-15T04:24:15.913Z,15.89
2023-02-15T04:25:15.911Z,15.82
2023-02-15T04:26:15.900Z,15.86
2023-02-15T04:27:17.741Z,15.92
2023-02-15T04:28:15.895Z,15.89
2023-02-15T04:29:15.896Z,15.93
2023-02-15T04:30:15.930Z,15.83
2023-02-15T04:31:15.969Z,15.82
2023-02-15T04:32:16.023Z,15.84
2023-02-15T04:33:15.865Z,15.89
2023-02-15T04:34:15.858Z,15.92
2023-02-15T04:35:15.876Z,15.86
2023-02-15T04:36:15.861Z,15.86
2023-02-15T04:37:15.863Z,15.84
2023-02-15T04:38:15.864Z,15.90
2023-02-15T04:39:15.838Z,15.89
2023-02-15T04:40:18.698Z,15.84
2023-02-15T04:41:15.814Z,15.87
2023-02-15T04:42:15.817Z,15.84
2023-02-15T04:43:15.826Z,15.89
2023-02-15T04:44:15.808Z,15.82
2023-02-15T04:45:15.797Z,15.89
2023-02-15T04:46:15.817Z,15.86
2023-02-15T04:47:15.798Z,15.71
2023-02-15T04:48:15.795Z,15.87
2023-02-15T04:49:15.794Z,15.89
2023-02-15T04:50:15.795Z,15.84
2023-02-15T04:51:15.797Z,15.72
2023-02-15T04:52:15.774Z,15.83
2023-02-15T04:53:15.754Z,15.84
2023-02-15T04:54:15.788Z,15.83
2023-02-15T04:55:15.757Z,15.75
2023-02-15T04:56:15.755Z,15.84
2023-02-15T04:57:15.740Z,15.74
2023-02-15T04:58:15.747Z,15.83
2023-02-15T04:59:15.739Z,15.76
2023-02-15T05:00:15.720Z,15.84
2023-02-15T05:01:15.769Z,15.80
2023-02-15T05:02:15.722Z,15.83
2023-02-15T05:03:15.716Z,15.75
2023-02-15T05:04:15.763Z,15.71
2023-02-15T05:05:15.706Z,15.78
2023-02-15T05:06:15.707Z,15.82
2023-02-15T05:07:15.784Z,15.75
2023-02-15T05:08:15.691Z,15.72
2023-02-15T05:09:15.709Z,15.75
2023-02-15T05:10:15.672Z,15.75
2023-02-15T05:11:15.674Z,15.71
2023-02-15T05:12:15.677Z,15.75
2023-02-15T05:13:15.648Z,15.74
2023-02-15T05:14:15.648Z,15.75
2023-02-15T05:15:15.641Z,15.78
2023-02-15T05:16:15.663Z,15.82
2023-02-15T05:17:15.629Z,15.72
2023-02-15T05:18:15.627Z,15.75
2023-02-15T05:19:15.618Z,15.75
2023-02-15T05:20:15.630Z,15.72
2023-02-15T05:21:15.603Z,15.75
2023-02-15T05:22:15.615Z,15.72
2023-02-15T05:23:15.645Z,15.78
2023-02-15T05:24:15.612Z,15.78
2023-02-15T05:25:15.587Z,15.76
2023-02-15T05:26:15.590Z,15.71
2023-02-15T05:27:15.585Z,15.74
2023-02-15T05:28:15.577Z,15.72
2023-02-15T05:29:15.578Z,15.75
2023-02-15T05:30:15.635Z,15.78
2023-02-15T05:31:15.770Z,15.80
2023-02-15T05:32:15.712Z,15.83
2023-02-15T05:33:15.559Z,15.76
2023-02-15T05:34:15.561Z,15.72
2023-02-15T05:35:15.562Z,15.74
2023-02-15T05:36:15.540Z,15.67
2023-02-15T05:37:15.541Z,15.75
2023-02-15T05:38:15.537Z,15.72
2023-02-15T05:39:15.534Z,15.74
2023-02-15T05:40:15.532Z,15.89
2023-02-15T05:41:15.519Z,15.86
2023-02-15T05:42:15.515Z,15.90
2023-02-15T05:43:15.495Z,15.93
2023-02-15T05:44:15.496Z,15.96
2023-02-15T05:45:15.508Z,15.92
2023-02-15T05:46:15.523Z,15.92
2023-02-15T05:47:15.483Z,16.09
2023-02-15T05:48:15.494Z,15.97
2023-02-15T05:49:15.479Z,16.01
2023-02-15T05:50:15.475Z,16.08
2023-02-15T05:51:15.454Z,16.09
2023-02-15T05:52:15.467Z,16.08
2023-02-15T05:53:15.455Z,16.23
2023-02-15T05:54:15.465Z,16.21
2023-02-15T05:55:15.469Z,16.15
2023-02-15T05:56:15.459Z,16.34
2023-02-15T05:57:15.465Z,16.30
2023-02-15T05:58:15.452Z,16.43
2023-02-15T05:59:15.430Z,16.35
2023-02-15T06:00:15.437Z,16.34
2023-02-15T06:01:15.419Z,16.41
2023-02-15T06:02:15.432Z,16.50
2023-02-15T06:03:15.483Z,16.46
2023-02-15T06:04:15.394Z,16.52
2023-02-15T06:05:15.394Z,16.48
2023-02-15T06:06:15.408Z,16.61
2023-02-15T06:07:15.381Z,16.63
2023-02-15T06:08:15.381Z,16.63
2023-02-15T06:09:15.368Z,16.67
2023-02-15T06:10:15.397Z,16.76
2023-02-15T06:11:15.395Z,16.76
2023-02-15T06:12:15.370Z,16.78
2023-02-15T06:13:15.363Z,16.85
2023-02-15T06:14:15.351Z,16.76
2023-02-15T06:15:15.342Z,16.85
2023-02-15T06:16:15.416Z,16.91
2023-02-15T06:17:15.334Z,16.98
2023-02-15T06:18:15.343Z,16.96
2023-02-15T06:19:15.330Z,17.06
2023-02-15T06:20:15.332Z,17.06
2023-02-15T06:21:15.328Z,17.08
2023-02-15T06:22:15.318Z,17.07
2023-02-15T06:23:15.307Z,17.12
2023-02-15T06:24:15.306Z,17.19
2023-02-15T06:25:15.309Z,17.18
2023-02-15T06:26:15.320Z,17.18
2023-02-15T06:27:15.304Z,17.15
2023-02-15T06:28:15.295Z,17.19
2023-02-15T06:29:15.285Z,17.22
2023-02-15T06:30:15.307Z,17.30
2023-02-15T06:31:15.425Z,17.30
2023-02-15T06:32:15.271Z,17.26
2023-02-15T06:33:15.279Z,17.33
2023-02-15T06:34:15.264Z,17.33
2023-02-15T06:35:15.263Z,17.31
2023-02-15T06:36:15.278Z,17.30
2023-02-15T06:37:15.462Z,17.48
2023-02-15T06:38:15.262Z,17.48
2023-02-15T06:39:15.250Z,17.44
2023-02-15T06:40:15.233Z,17.40
2023-02-15T06:41:15.235Z,17.48
2023-02-15T06:42:15.239Z,17.43
2023-02-15T06:43:15.277Z,17.51
2023-02-15T06:44:15.232Z,17.52
2023-02-15T06:45:15.232Z,17.43
2023-02-15T06:46:15.280Z,17.48
2023-02-15T06:47:15.218Z,17.51
2023-02-15T06:48:15.227Z,17.43
2023-02-15T06:49:15.208Z,17.44
2023-02-15T06:50:15.199Z,17.36
2023-02-15T06:51:15.191Z,17.48
2023-02-15T06:52:15.196Z,17.31
2023-02-15T06:53:15.183Z,17.44
2023-02-15T06:54:15.189Z,17.28
2023-02-15T06:55:15.180Z,17.28
2023-02-15T06:56:15.172Z,17.33
2023-02-15T06:57:15.161Z,17.30
2023-02-15T06:58:15.181Z,17.34
2023-02-15T06:59:15.202Z,17.30
2023-02-15T07:00:15.187Z,17.31
2023-02-15T07:01:15.222Z,17.33
2023-02-15T07:02:15.170Z,17.33
2023-02-15T07:03:15.160Z,17.30
2023-02-15T07:04:15.156Z,17.31
2023-02-15T07:05:15.209Z,17.23
2023-02-15T07:06:15.148Z,17.22
2023-02-15T07:07:15.165Z,17.14
2023-02-15T07:08:15.138Z,17.18
2023-02-15T07:09:15.106Z,17.18
2023-02-15T07:10:15.144Z,17.12
2023-02-15T07:11:15.155Z,17.15
2023-02-15T07:12:15.107Z,17.19
2023-02-15T07:13:15.104Z,17.21
2023-02-15T07:14:15.099Z,17.19
2023-02-15T07:15:15.101Z,17.18
2023-02-15T07:16:15.181Z,17.07
2023-02-15T07:17:35.036Z,17.21
2023-02-15T07:18:15.080Z,17.07
2023-02-15T07:19:15.075Z,17.08
2023-02-15T07:20:15.093Z,17.06
2023-02-15T07:21:15.075Z,17.12
2023-02-15T07:22:15.061Z,17.04
2023-02-15T07:23:15.049Z,17.01
2023-02-15T07:24:15.051Z,17.06
2023-02-15T07:25:15.064Z,17.04
2023-02-15T07:26:15.044Z,17.07
2023-02-15T07:27:15.024Z,17.06
2023-02-15T07:28:15.038Z,17.07
2023-02-15T07:29:15.027Z,17.06
2023-02-15T07:30:15.094Z,16.94
2023-02-15T07:31:15.069Z,16.93
2023-02-15T07:32:15.056Z,16.98
2023-02-15T07:33:15.008Z,16.94
2023-02-15T07:34:15.003Z,16.96
2023-02-15T07:35:15.003Z,16.93
2023-02-15T07:36:14.991Z,16.89
2023-02-15T07:37:14.995Z,16.98
2023-02-15T07:38:14.987Z,16.93
2023-02-15T07:39:14.979Z,16.86
2023-02-15T07:40:14.969Z,16.81
2023-02-15T07:41:14.992Z,16.83
2023-02-15T07:42:14.977Z,16.85
2023-02-15T07:43:14.988Z,16.96
2023-02-15T07:44:14.994Z,16.85
2023-02-15T07:45:14.958Z,16.82
2023-02-15T07:46:15.000Z,16.86
2023-02-15T07:47:14.961Z,16.86
2023-02-15T07:48:14.954Z,16.86
2023-02-15T07:49:14.928Z,16.81
2023-02-15T07:50:14.937Z,16.76
2023-02-15T07:51:14.931Z,16.78
2023-02-15T07:52:14.932Z,16.75
2023-02-15T07:53:14.927Z,16.78
2023-02-15T07:54:14.909Z,16.79
2023-02-15T07:55:14.910Z,16.81
2023-02-15T07:56:14.917Z,16.78
2023-02-15T07:57:14.917Z,16.73
2023-02-15T07:58:57.312Z,16.79
2023-02-15T07:59:57.309Z,16.75
2023-02-15T08:00:57.310Z,16.71
2023-02-15T08:01:57.651Z,16.71
2023-02-15T08:03:00.088Z,16.63
2023-02-15T08:03:57.728Z,16.68
2023-02-15T08:04:57.303Z,16.67
2023-02-15T08:05:57.507Z,16.71
2023-02-15T08:06:57.284Z,16.70
2023-02-15T08:07:57.280Z,16.70
2023-02-15T08:08:57.273Z,16.68
2023-02-15T08:09:57.264Z,16.66
2023-02-15T08:10:57.263Z,16.64
2023-02-15T08:11:57.260Z,16.60
2023-02-15T08:12:57.239Z,16.61
2023-02-15T08:13:57.259Z,16.61
2023-02-15T08:14:57.234Z,16.61
2023-02-15T08:15:57.289Z,16.57
2023-02-15T08:16:57.310Z,16.60
2023-02-15T08:17:57.238Z,16.61
2023-02-15T08:18:57.238Z,16.60
2023-02-15T08:19:57.214Z,16.61
2023-02-15T08:20:57.223Z,16.57
2023-02-15T08:21:57.226Z,16.56
2023-02-15T08:22:57.213Z,16.48
2023-02-15T08:23:57.198Z,16.48
2023-02-15T08:24:57.202Z,16.52
2023-02-15T08:25:57.192Z,16.46
2023-02-15T08:26:57.210Z,16.49
2023-02-15T08:27:57.177Z,16.52
2023-02-15T08:28:57.215Z,16.50
2023-02-15T08:29:57.218Z,16.53
2023-02-15T08:30:57.206Z,16.48
2023-02-15T08:31:57.312Z,16.46
2023-02-15T08:32:57.172Z,16.49
2023-02-15T08:33:57.163Z,16.46
2023-02-15T08:34:57.188Z,16.49
2023-02-15T08:35:57.149Z,16.38
2023-02-15T08:36:57.136Z,16.46
2023-02-15T08:37:57.129Z,16.39
2023-02-15T08:38:57.156Z,16.35
2023-02-15T08:39:57.135Z,16.35
2023-02-15T08:40:57.119Z,16.31
2023-02-15T08:41:57.124Z,16.33
2023-02-15T08:42:57.127Z,16.30
2023-02-15T08:43:57.113Z,16.33
2023-02-15T08:44:57.109Z,16.35
2023-02-15T08:45:57.132Z,16.34
2023-02-15T08:46:57.090Z,16.35
2023-02-15T08:47:57.096Z,16.33
2023-02-15T08:48:57.082Z,16.38
2023-02-15T08:49:57.084Z,16.38
2023-02-15T08:50:57.110Z,16.31
2023-02-15T08:51:57.083Z,16.34
2023-02-15T08:52:57.086Z,16.35
2023-02-15T08:53:57.067Z,16.24
2023-02-15T08:54:57.049Z,16.28
2023-02-15T08:55:57.050Z,16.20
2023-02-15T08:56:57.041Z,16.27
2023-02-15T08:57:57.066Z,16.27
2023-02-15T08:58:57.175Z,16.21
2023-02-15T08:59:57.039Z,16.20
2023-02-15T09:00:57.062Z,16.21
2023-02-15T09:01:57.052Z,16.33
2023-02-15T09:02:57.026Z,16.21
2023-02-15T09:03:57.022Z,16.25
2023-02-15T09:04:57.004Z,16.21
2023-02-15T09:05:57.026Z,16.21
2023-02-15T09:06:57.035Z,16.15
2023-02-15T09:07:56.994Z,16.27
2023-02-15T09:08:57.072Z,16.11
2023-02-15T09:09:56.974Z,16.24
2023-02-15T09:10:56.992Z,16.15
2023-02-15T09:11:59.498Z,16.17
2023-02-15T09:12:56.960Z,16.21
2023-02-15T09:13:57.088Z,16.21
2023-02-15T09:14:56.979Z,16.20
2023-02-15T09:15:56.955Z,16.14
2023-02-15T09:16:57.093Z,16.11
2023-02-15T09:17:56.950Z,16.17
2023-02-15T09:18:56.967Z,16.09
2023-02-15T09:19:56.921Z,16.12
2023-02-15T09:20:56.924Z,16.11
2023-02-15T09:21:56.914Z,16.12
2023-02-15T09:22:59.033Z,16.11
2023-02-15T09:23:56.906Z,16.09
2023-02-15T09:24:56.918Z,16.09
2023-02-15T09:25:56.908Z,16.07
2023-02-15T09:26:56.906Z,16.09
2023-02-15T09:27:56.903Z,16.08
2023-02-15T09:28:56.892Z,16.11
2023-02-15T09:29:56.933Z,16.07
2023-02-15T09:30:57.066Z,16.07
2023-02-15T09:31:56.911Z,16.11
2023-02-15T09:32:56.880Z,16.02
2023-02-15T09:33:56.879Z,16.09
2023-02-15T09:34:56.880Z,16.01
2023-02-15T09:35:56.852Z,16.05
2023-02-15T09:36:56.864Z,16.05
2023-02-15T09:37:56.853Z,16.05
2023-02-15T09:38:57.021Z,16.07
2023-02-15T09:39:56.843Z,16.05
2023-02-15T09:40:56.821Z,16.08
2023-02-15T09:41:56.815Z,16.05
2023-02-15T09:42:56.824Z,16.02
2023-02-15T09:43:56.814Z,16.04
2023-02-15T09:44:56.800Z,16.01
2023-02-15T09:45:56.818Z,16.04
2023-02-15T09:46:56.794Z,16.07
2023-02-15T09:47:56.782Z,16.01
2023-02-15T09:48:56.798Z,16.02
2023-02-15T09:49:56.793Z,16.08
2023-02-15T09:50:56.786Z,16.04
2023-02-15T09:51:56.775Z,16.04
2023-02-15T09:52:56.782Z,16.08
2023-02-15T09:53:56.775Z,16.05
2023-02-15T09:54:56.794Z,15.93
2023-02-15T09:55:56.758Z,16.04
2023-02-15T09:56:56.762Z,16.07
2023-02-15T09:57:56.741Z,15.94
2023-02-15T09:58:56.741Z,16.08
2023-02-15T09:59:56.728Z,16.00
2023-02-15T10:00:56.767Z,16.00
2023-02-15T10:01:56.731Z,16.01
2023-02-15T10:02:56.746Z,15.90
2023-02-15T10:03:56.721Z,16.05
2023-02-15T10:04:56.808Z,16.00
2023-02-15T10:05:56.722Z,16.01
2023-02-15T10:06:56.697Z,15.93
2023-02-15T10:07:56.753Z,15.87
2023-02-15T10:08:56.702Z,16.01
2023-02-15T10:09:56.693Z,15.89
2023-02-15T10:10:56.716Z,16.00
2023-02-15T10:11:56.671Z,16.04
2023-02-15T10:12:56.684Z,15.94
2023-02-15T10:13:56.675Z,15.89
2023-02-15T10:14:56.672Z,16.08
2023-02-15T10:15:56.665Z,16.02
2023-02-15T10:16:56.781Z,16.01
2023-02-15T10:17:56.641Z,16.02
2023-02-15T10:18:56.647Z,16.00
2023-02-15T10:19:56.627Z,16.08
2023-02-15T10:20:56.642Z,16.01
2023-02-15T10:21:56.618Z,15.97
2023-02-15T10:22:56.625Z,16.02
2023-02-15T10:23:56.627Z,16.05
2023-02-15T10:24:56.612Z,16.00
2023-02-15T10:25:56.621Z,15.96
2023-02-15T10:26:56.622Z,16.07
2023-02-15T10:27:56.591Z,16.04
2023-02-15T10:28:56.605Z,15.93
2023-02-15T10:29:56.620Z,15.92
2023-02-15T10:30:56.800Z,16.00
2023-02-15T10:31:56.727Z,15.96
2023-02-15T10:32:56.569Z,16.01
2023-02-15T10:33:56.570Z,16.08
2023-02-15T10:34:56.561Z,16.04
2023-02-15T10:35:56.552Z,16.01
2023-02-15T10:36:56.552Z,16.00
2023-02-15T10:37:56.545Z,16.01
2023-02-15T10:38:56.564Z,15.92
2023-02-15T10:39:56.549Z,15.93
2023-02-15T10:40:56.530Z,16.01
2023-02-15T10:41:56.529Z,16.01
2023-02-15T10:42:56.551Z,15.92
2023-02-15T10:43:56.511Z,15.96
2023-02-15T10:44:56.524Z,16.08
2023-02-15T10:45:56.519Z,16.01
2023-02-15T10:46:56.517Z,15.96
2023-02-15T10:47:56.493Z,16.02
2023-02-15T10:48:56.517Z,15.93
2023-02-15T10:49:56.480Z,16.01
2023-02-15T10:50:56.494Z,15.96
2023-02-15T10:51:56.488Z,15.92
2023-02-15T10:52:56.485Z,15.93
2023-02-15T10:53:56.463Z,15.97
2023-02-15T10:54:56.477Z,15.93
2023-02-15T10:55:56.450Z,16.00
2023-02-15T10:56:56.488Z,16.00
2023-02-15T10:57:56.456Z,15.94
2023-02-15T10:58:56.614Z,15.94
2023-02-15T10:59:56.433Z,16.01
2023-02-15T11:00:56.445Z,15.93
2023-02-15T11:01:56.557Z,15.92
2023-02-15T11:02:56.422Z,15.93
2023-02-15T11:03:56.426Z,15.97
2023-02-15T11:04:56.545Z,15.94
2023-02-15T11:05:56.412Z,15.97
2023-02-15T11:06:56.417Z,15.93
2023-02-15T11:07:56.404Z,15.92
2023-02-15T11:08:56.396Z,15.96
2023-02-15T11:09:56.387Z,16.00
2023-02-15T11:10:56.385Z,15.96
2023-02-15T11:11:56.388Z,15.96
2023-02-15T11:12:56.385Z,15.96
2023-02-15T11:13:56.369Z,15.93
2023-02-15T11:14:56.398Z,15.97
2023-02-15T11:15:56.392Z,15.93
2023-02-15T11:16:56.374Z,15.96
2023-02-15T11:17:56.342Z,16.01
2023-02-15T11:18:56.348Z,16.00
2023-02-15T11:19:56.339Z,15.93
2023-02-15T11:20:56.333Z,15.92
2023-02-15T11:21:56.325Z,15.97
2023-02-15T11:22:56.330Z,15.97
2023-02-15T11:23:56.319Z,15.94
2023-02-15T11:24:56.328Z,15.94
2023-02-15T11:25:56.319Z,15.97
2023-02-15T11:26:56.342Z,15.93
2023-02-15T11:27:56.307Z,15.97
2023-02-15T11:28:56.310Z,15.96
2023-02-15T11:29:56.314Z,15.96
2023-02-15T11:30:56.520Z,15.92
2023-02-15T11:31:56.480Z,16.04
2023-02-15T11:32:56.278Z,16.01
2023-02-15T11:33:56.271Z,15.93
2023-02-15T11:34:56.292Z,15.96
2023-02-15T11:35:56.267Z,15.93
2023-02-15T11:36:56.269Z,15.92
2023-02-15T11:37:56.248Z,15.93
2023-02-15T11:38:56.266Z,16.01
2023-02-15T11:39:56.238Z,15.97
2023-02-15T11:40:56.250Z,16.01
2023-02-15T11:41:56.244Z,15.93
2023-02-15T11:42:56.245Z,15.97
2023-02-15T11:43:56.244Z,16.05
2023-02-15T11:44:56.246Z,16.05
2023-02-15T11:45:56.229Z,16.00
2023-02-15T11:46:56.240Z,15.97
2023-02-15T11:47:56.212Z,16.07
2023-02-15T11:48:56.209Z,16.01
2023-02-15T11:49:56.185Z,16.02
2023-02-15T11:50:56.193Z,16.04
2023-02-15T11:51:56.198Z,16.01
2023-02-15T11:52:56.185Z,15.94
2023-02-15T11:53:56.174Z,15.96
2023-02-15T11:54:56.185Z,16.07
2023-02-15T11:55:56.177Z,16.01
2023-02-15T11:56:56.167Z,15.93
2023-02-15T11:57:56.186Z,15.96
2023-02-15T11:58:56.144Z,16.09
2023-02-15T11:59:56.155Z,16.01
2023-02-15T12:00:56.153Z,15.96
2023-02-15T12:01:56.146Z,16.04
2023-02-15T12:02:56.295Z,15.93
2023-02-15T12:03:56.184Z,16.05
2023-02-15T12:04:56.118Z,16.04
2023-02-15T12:05:56.155Z,16.01
2023-02-15T12:07:02.299Z,16.07
2023-02-15T12:07:56.111Z,16.01
2023-02-15T12:08:56.115Z,16.05
2023-02-15T12:09:56.096Z,16.01
2023-02-15T12:10:56.099Z,15.90
2023-02-15T12:11:56.075Z,16.01
2023-02-15T12:12:56.077Z,15.94
2023-02-15T12:13:56.083Z,16.01
2023-02-15T12:14:56.082Z,16.08
2023-02-15T12:15:56.087Z,16.02
2023-02-15T12:16:56.067Z,16.02
2023-02-15T12:17:56.069Z,15.92
2023-02-15T12:18:56.069Z,16.05
2023-02-15T12:19:56.058Z,16.07
2023-02-15T12:20:56.061Z,15.94
2023-02-15T12:21:56.050Z,15.93
2023-02-15T12:22:56.031Z,15.97
2023-02-15T12:23:56.019Z,16.04
2023-02-15T12:24:56.028Z,15.93
2023-02-15T12:25:56.034Z,16.09
2023-02-15T12:26:56.011Z,16.11
2023-02-15T12:27:56.013Z,15.93
2023-02-15T12:28:56.005Z,16.07
2023-02-15T12:29:56.010Z,16.02
2023-02-15T12:30:56.019Z,16.01
2023-02-15T12:31:56.208Z,16.02
2023-02-15T12:32:55.986Z,16.00
2023-02-15T12:33:55.996Z,16.04
2023-02-15T12:34:56.011Z,15.93
2023-02-15T12:35:55.962Z,16.11
2023-02-15T12:36:55.974Z,16.08
2023-02-15T12:37:55.975Z,16.00
2023-02-15T12:38:59.477Z,16.02
2023-02-15T12:39:55.941Z,16.09
2023-02-15T12:40:55.957Z,16.08
2023-02-15T12:41:55.947Z,16.02
2023-02-15T12:42:55.945Z,16.07
2023-02-15T12:43:55.957Z,16.02
2023-02-15T12:44:55.939Z,16.07
2023-02-15T12:45:55.926Z,16.01
2023-02-15T12:46:55.973Z,16.01
2023-02-15T12:47:55.914Z,16.09
2023-02-15T12:48:55.921Z,16.09
2023-02-15T12:49:55.912Z,16.02
2023-02-15T12:50:55.911Z,16.09
2023-02-15T12:51:55.889Z,16.08
2023-02-15T12:52:55.883Z,16.12